Latest Weather Observations for Moruya Airport

IDN60901

Issued at 8:11 am EDT Sunday 14 February 2016 (issued every 10 minutes, with the page automatically refreshed every 10 minutes)

About weather observations | Map of Canberra area stations | Latest observations for Canberra area | Other Formats
Station Details ID: 069148 Name: MORUYA AIRPORT AWS Lat: -35.90 Lon: 150.14 Height: 4.0 m
Data from the previous 72 hours. | See also: Recent months at Moruya Airport
Date/Time
EDT
Tmp

°C
App
Tmp
°C
Dew
Point
°C
Rel
Hum
%
Delta-T

°C
Wind Press
QNH
hPa
Press
MSL
hPa
Rain
since
9 am
mm
Dir
 
Spd
km/h
Gust
km/h
Spd
kts
Gust
kts
14/08:00am 21.4 20.1 15.9 71 3.3 S 17 22 9 12 1007.8 1007.7 0.0
14/07:30am 21.5 20.8 17.3 77 2.6 S 17 24 9 13 1007.5 1007.4 0.0
14/07:00am 21.7 20.6 17.3 76 2.7 SSW 19 26 10 14 1006.8 1006.7 0.0
14/06:30am 21.8 21.2 17.6 77 2.6 SSW 17 28 9 15 1006.6 1006.5 0.0
14/06:00am 21.8 22.4 18.6 82 2.0 SSW 13 19 7 10 1006.1 1006.0 0.0
14/05:30am 21.9 20.0 18.5 81 2.1 S 26 39 14 21 1005.6 1005.5 0.0
14/05:00am 21.9 20.8 19.5 86 1.5 S 24 37 13 20 1005.0 1004.9 0.0
14/04:44am 21.3 21.1 19.8 91 1.0 S 20 28 11 15 1004.6 1004.5 0.0
14/04:30am 20.0 23.3 19.0 94 0.6 CALM 0 0 0 0 1004.0 1003.9 0.0
14/04:29am 20.0 23.3 19.0 94 0.6 CALM 0 0 0 0 1003.9 1003.8 0.0
14/04:06am 20.0 23.3 19.0 94 0.6 CALM 0 0 0 0 1004.0 1003.9 0.0
14/04:00am 19.5 22.5 18.5 94 0.6 CALM 0 0 0 0 1004.0 1003.9 0.0
14/03:38am 20.2 23.5 19.2 94 0.6 CALM 0 6 0 3 1004.2 1004.1 0.0
14/03:30am 19.8 22.5 18.6 93 0.7 NNW 2 6 1 3 1004.4 1004.3 0.0
14/03:00am 20.4 23.4 19.2 93 0.8 NNW 2 9 1 5 1004.5 1004.4 0.0
14/02:30am 20.5 23.8 19.2 92 0.8 CALM 0 0 0 0 1004.8 1004.7 0.0
14/02:00am 20.5 23.8 19.2 92 0.8 CALM 0 0 0 0 1005.2 1005.1 0.0
14/01:30am 20.8 24.3 19.5 92 0.8 CALM 0 0 0 0 1005.5 1005.4 0.0
14/01:00am 21.0 24.5 19.5 91 1.0 CALM 0 0 0 0 1005.6 1005.5 0.0
14/12:30am 21.3 24.9 19.8 91 1.0 CALM 0 0 0 0 1006.1 1006.0 0.0
14/12:00am 21.1 23.9 19.6 91 1.0 N 4 7 2 4 1006.1 1006.0 0.0
 
Date/Time
EDT
Tmp

°C
App
Tmp
°C
Dew
Point
°C
Rel
Hum
%
Delta-T

°C
Wind Press
QNH
hPa
Press
MSL
hPa
Rain
since
9 am
mm
Dir
 
Spd
km/h
Gust
km/h
Spd
kts
Gust
kts
13/11:30pm 21.3 24.9 19.8 91 1.0 CALM 0 0 0 0 1006.6 1006.5 0.0
13/11:00pm 21.4 25.1 19.9 91 1.0 CALM 0 2 0 1 1007.0 1006.9 0.0
13/10:30pm 21.2 24.8 19.7 91 1.0 CALM 0 2 0 1 1007.4 1007.3 0.0
13/10:00pm 21.2 24.6 19.3 89 1.2 CALM 0 0 0 0 1007.3 1007.2 0.0
13/09:30pm 21.5 24.8 19.2 87 1.5 CALM 0 0 0 0 1007.2 1007.1 0.0
13/09:24pm 21.6 24.9 19.2 86 1.5 CALM 0 0 0 0 1007.1 1007.0 0.0
13/09:00pm 22.3 25.8 19.5 84 1.8 CALM 0 0 0 0 1006.9 1006.8 0.0
13/08:33pm 23.2 25.5 19.8 81 2.2 NNE 7 7 4 4 1006.6 1006.5 0.0
13/08:30pm 23.3 25.6 19.9 81 2.2 NNE 7 11 4 6 1006.6 1006.5 0.0
13/08:00pm 24.2 24.6 19.9 77 2.8 NE 17 20 9 11 1006.5 1006.4 0.0
13/07:30pm 25.1 25.0 19.5 71 3.6 NNE 19 24 10 13 1006.4 1006.3 0.0
13/07:00pm 25.5 24.3 20.1 72 3.5 NE 26 33 14 18 1006.1 1006.0 0.0
13/06:30pm 25.8 23.5 20.1 71 3.7 NNE 32 39 17 21 1006.0 1005.9 0.0
13/06:00pm 26.1 24.3 20.4 71 3.7 NNE 30 39 16 21 1006.3 1006.2 0.0
13/05:30pm 26.5 24.2 20.6 70 3.9 NNE 33 43 18 23 1006.5 1006.4 0.0
13/05:00pm 26.6 24.7 20.9 71 3.8 NNE 32 39 17 21 1006.6 1006.5 0.0
13/04:30pm 26.9 24.9 20.7 69 4.1 NNE 32 39 17 21 1006.9 1006.8 0.0
13/04:00pm 27.3 26.1 20.9 68 4.2 NNE 28 39 15 21 1007.5 1007.4 0.0
13/03:30pm 26.7 25.2 21.0 71 3.8 NE 30 37 16 20 1007.6 1007.5 0.0
13/03:00pm 26.7 25.1 20.8 70 3.9 NE 30 41 16 22 1008.1 1008.0 0.0
13/02:30pm 27.4 26.5 20.7 67 4.4 NE 26 35 14 19 1008.4 1008.3 0.0
13/02:00pm 26.9 25.6 20.7 69 4.1 NE 28 35 15 19 1009.0 1008.9 0.0
13/01:30pm 26.7 25.7 21.2 72 3.6 NE 28 39 15 21 1009.2 1009.1 0.0
13/01:00pm 26.4 25.7 20.3 69 4.0 NE 24 32 13 17 1009.7 1009.6 0.0
13/12:30pm 26.3 25.2 20.2 69 4.0 NE 26 33 14 18 1010.2 1010.1 0.0
13/12:00pm 26.4 25.8 20.5 70 3.9 NE 24 32 13 17 1010.7 1010.6 0.0
13/11:30am 26.0 25.7 20.3 71 3.7 NE 22 30 12 16 1011.1 1011.0 0.0
13/11:00am 25.7 25.5 19.8 70 3.8 NE 20 28 11 15 1011.5 1011.4 0.0
13/10:30am 25.2 25.0 19.8 72 3.5 NE 20 26 11 14 1011.7 1011.6 0.0
13/10:00am 25.0 25.6 19.4 71 3.6 NE 15 17 8 9 1012.0 1011.9 0.0
13/09:30am 24.5 25.2 19.6 74 3.2 ENE 15 17 8 9 1012.2 1012.1 0.0
13/09:00am 24.3 25.0 18.9 72 3.4 N 13 15 7 8 1012.4 1012.3 0.2
13/08:30am 23.0 24.6 19.2 79 2.4 N 9 13 5 7 1012.5 1012.4 0.2
13/08:00am 21.3 22.0 18.9 86 1.5 N 13 19 7 10 1012.4 1012.3 0.2
13/07:30am 20.4 21.5 18.9 91 0.9 N 11 15 6 8 1012.5 1012.4 0.2
13/07:00am 19.9 21.3 18.7 93 0.7 N 9 15 5 8 1012.4 1012.3 0.2
13/06:30am 18.9 21.2 17.7 93 0.7 N 2 6 1 3 1012.3 1012.2 0.2
13/06:00am 19.4 21.2 18.4 94 0.6 NNW 6 9 3 5 1012.1 1012.0 0.2
13/05:30am 19.5 21.1 18.3 93 0.7 NNW 7 9 4 5 1011.9 1011.8 0.2
13/05:00am 19.7 22.0 18.5 93 0.7 NNW 4 9 2 5 1012.0 1011.9 0.2
13/04:30am 20.1 21.2 18.8 92 0.8 N 11 17 6 9 1012.1 1012.0 0.2
13/04:00am 20.0 21.9 19.0 94 0.6 N 7 13 4 7 1012.3 1012.2 0.2
13/03:30am 19.5 21.8 18.5 94 0.6 NNW 4 9 2 5 1012.5 1012.4 0.2
13/03:00am 19.2 21.0 18.2 94 0.6 N 6 7 3 4 1012.7 1012.6 0.2
13/02:57am 19.3 20.9 18.3 94 0.6 N 7 9 4 5 1012.7 1012.6 0.2
13/02:42am 19.4 21.5 18.2 93 0.7 N 4 7 2 4 1012.9 1012.8 0.2
13/02:30am 19.6 21.4 18.4 93 0.7 NNW 6 9 3 5 1013.0 1012.9 0.2
13/02:00am 19.8 21.6 18.8 94 0.6 NNW 7 9 4 5 1013.4 1013.3 0.2
13/01:30am 20.0 22.8 18.8 93 0.8 NNW 2 6 1 3 1013.5 1013.4 0.2
13/01:00am 20.5 23.9 19.3 93 0.8 CALM 0 4 0 2 1013.9 1013.8 0.2
13/12:30am 20.7 24.0 19.2 91 0.9 CALM 0 4 0 2 1014.1 1014.0 0.2
13/12:00am 21.1 23.5 19.6 91 1.0 NNW 6 7 3 4 1014.1 1014.0 0.2
 
Date/Time
EDT
Tmp

°C
App
Tmp
°C
Dew
Point
°C
Rel
Hum
%
Delta-T

°C
Wind Press
QNH
hPa
Press
MSL
hPa
Rain
since
9 am
mm
Dir
 
Spd
km/h
Gust
km/h
Spd
kts
Gust
kts
12/11:30pm 21.0 24.4 19.3 90 1.1 CALM 0 6 0 3 1014.3 1014.2 0.2
12/11:00pm 20.9 24.1 18.8 88 1.3 CALM 0 0 0 0 1014.5 1014.4 0.2
12/10:30pm 21.3 24.6 19.0 87 1.5 CALM 0 6 0 3 1014.9 1014.8 0.2
12/10:00pm 22.4 25.2 19.6 84 1.8 N 4 9 2 5 1014.9 1014.8 0.2
12/09:30pm 22.6 23.8 19.8 84 1.8 N 13 17 7 9 1014.5 1014.4 0.2
12/09:00pm 23.3 23.8 20.1 82 2.1 NNE 17 22 9 12 1014.5 1014.4 0.2
12/08:30pm 23.6 23.7 20.3 82 2.1 NNE 20 24 11 13 1014.2 1014.1 0.2
12/08:00pm 23.4 24.6 20.0 81 2.2 N 13 20 7 11 1014.2 1014.1 0.2
12/07:30pm 24.2 23.4 20.1 78 2.7 NNE 24 35 13 19 1013.8 1013.7 0.2
12/07:00pm 24.7 24.3 20.2 76 2.9 NNE 22 26 12 14 1013.5 1013.4 0.2
12/06:30pm 25.2 25.0 20.5 75 3.1 NE 22 28 12 15 1013.2 1013.1 0.2
12/06:00pm 25.7 24.7 19.6 69 3.9 NE 24 30 13 16 1013.3 1013.2 0.2
12/05:30pm 26.5 26.3 20.6 70 3.9 NE 22 28 12 15 1013.5 1013.4 0.2
12/05:00pm 26.5 26.0 20.8 71 3.8 NNE 24 30 13 16 1013.5 1013.4 0.2
12/04:30pm 26.1 25.1 20.4 71 3.7 NE 26 33 14 18 1013.6 1013.5 0.2
12/04:00pm 26.7 26.0 20.3 68 4.2 NE 24 30 13 16 1013.5 1013.4 0.2
12/03:30pm 26.8 26.8 20.2 67 4.3 NE 20 28 11 15 1014.0 1013.9 0.2
12/03:00pm 26.6 26.9 20.7 70 3.9 NE 20 26 11 14 1014.2 1014.1 0.2
12/02:30pm 26.4 26.8 20.9 72 3.6 NE 20 26 11 14 1014.6 1014.5 0.2
12/02:00pm 26.6 26.9 21.6 74 3.3 ENE 22 28 12 15 1014.9 1014.8 0.2
12/01:30pm 25.9 26.3 20.9 74 3.3 ENE 20 24 11 13 1015.2 1015.1 0.2
12/01:00pm 26.4 27.0 21.4 74 3.3 ENE 20 24 11 13 1015.3 1015.2 0.2
12/12:30pm 25.7 26.0 20.7 74 3.3 ENE 20 24 11 13 1015.5 1015.4 0.2
12/12:00pm 25.5 26.3 21.4 78 2.7 E 19 20 10 11 1016.0 1015.9 0.2
12/11:30am 25.1 26.5 21.0 78 2.7 E 15 19 8 10 1016.1 1016.0 0.0
12/11:00am 24.5 25.9 20.4 78 2.7 E 13 17 7 9 1016.5 1016.4 0.0
12/10:30am 24.4 26.6 20.3 78 2.7 E 9 13 5 7 1016.7 1016.6 0.0
12/10:00am 24.0 26.0 19.9 78 2.6 E 9 13 5 7 1016.8 1016.7 0.0
12/09:30am 23.7 26.9 20.4 82 2.1 SSE 4 9 2 5 1016.8 1016.7 0.0
12/09:00am 21.8 24.8 19.2 85 1.6 SW 2 7 1 4 1017.0 1016.9 0.2
12/08:30am 20.7 22.8 19.0 90 1.1 WSW 6 9 3 5 1017.0 1016.9 0.2
12/08:00am 20.2 22.7 19.0 93 0.8 SW 4 7 2 4 1016.6 1016.5 0.2
12/07:30am 19.8 23.0 18.8 94 0.6 CALM 0 7 0 4 1016.4 1016.3 0.2
12/07:00am 18.9 21.3 17.9 94 0.6 W 2 7 1 4 1016.1 1016.0 0.2
12/06:30am 18.6 20.1 17.6 94 0.6 WSW 6 9 3 5 1015.9 1015.8 0.2
12/06:00am 19.2 22.1 18.2 94 0.6 CALM 0 6 0 3 1015.7 1015.6 0.2
12/05:30am 19.6 22.0 18.8 95 0.5 NW 4 11 2 6 1015.5 1015.4 0.2
12/05:00am 19.1 22.0 18.1 94 0.6 CALM 0 0 0 0 1015.2 1015.1 0.2
12/04:30am 19.3 22.3 18.5 95 0.5 CALM 0 6 0 3 1015.1 1015.0 0.2
12/04:00am 19.1 22.0 18.3 95 0.5 CALM 0 0 0 0 1015.2 1015.1 0.2
12/03:30am 19.4 22.5 18.6 95 0.5 CALM 0 4 0 2 1015.2 1015.1 0.2
12/03:16am 19.5 21.9 18.7 95 0.5 W 4 7 2 4 1015.2 1015.1 0.2
12/03:00am 19.0 21.9 18.2 95 0.5 CALM 0 0 0 0 1015.3 1015.2 0.2
12/02:30am 19.2 22.2 18.4 95 0.5 CALM 0 0 0 0 1015.3 1015.2 0.2
12/02:00am 19.3 22.3 18.5 95 0.5 CALM 0 0 0 0 1015.7 1015.6 0.2
12/01:30am 19.1 22.0 18.1 94 0.6 CALM 0 0 0 0 1016.0 1015.9 0.2
12/01:00am 19.9 23.0 18.7 93 0.7 CALM 0 0 0 0 1016.3 1016.2 0.2
12/12:50am 20.0 23.2 18.8 93 0.8 CALM 0 0 0 0 1016.3 1016.2 0.2
12/12:49am 20.1 23.3 18.9 93 0.8 CALM 0 0 0 0 1016.3 1016.2 0.2
12/12:30am 20.1 23.3 18.9 93 0.8 CALM 0 0 0 0 1016.4 1016.3 0.2
12/12:13am 20.4 23.7 19.2 93 0.8 CALM 0 0 0 0 1016.3 1016.2 0.2
12/12:00am 20.3 23.2 19.1 93 0.8 WSW 2 6 1 3 1016.3 1016.2 0.2
 
Date/Time
EDT
Tmp

°C
App
Tmp
°C
Dew
Point
°C
Rel
Hum
%
Delta-T

°C
Wind Press
QNH
hPa
Press
MSL
hPa
Rain
since
9 am
mm
Dir
 
Spd
km/h
Gust
km/h
Spd
kts
Gust
kts
11/11:45pm 20.5 23.1 19.3 93 0.8 WSW 4 6 2 3 1016.6 1016.5 0.2
11/11:43pm 20.5 23.5 19.3 93 0.8 WSW 2 6 1 3 1016.6 1016.5 0.2
11/11:30pm 20.6 23.7 19.4 93 0.8 W 2 6 1 3 1016.6 1016.5 0.2
11/11:29pm 20.6 24.0 19.4 93 0.8 CALM 0 6 0 3 1016.6 1016.5 0.2
11/11:00pm 21.1 23.5 19.7 92 0.9 SW 6 7 3 4 1016.6 1016.5 0.0
11/10:51pm 21.1 24.7 19.7 92 0.9 CALM 0 7 0 4 1016.5 1016.4 0.0
11/10:30pm 21.5 24.9 20.1 92 0.9 WNW 2 7 1 4 1016.6 1016.5 0.0
11/10:00pm 22.0 25.2 20.5 91 1.0 WNW 4 9 2 5 1016.6 1016.5 0.0
11/09:30pm 22.5 25.9 20.2 87 1.5 WSW 2 6 1 3 1016.6 1016.5 0.0
11/09:00pm 22.3 25.4 20.2 88 1.4 SW 4 7 2 4 1015.9 1015.8 0.0
11/08:30pm 22.2 25.9 19.9 87 1.5 CALM 0 0 0 0 1015.4 1015.3 0.0
11/08:00pm 22.9 26.2 19.9 83 1.9 SE 2 6 1 3 1015.2 1015.1 0.0
11/07:30pm 23.3 26.4 20.2 83 2.0 SW 4 7 2 4 1015.6 1015.5 0.0
11/07:00pm 23.5 25.7 19.2 77 2.7 SE 6 9 3 5 1015.1 1015.0 0.0
11/06:30pm 23.5 24.9 20.4 83 2.0 SE 13 20 7 11 1014.5 1014.4 0.0
11/06:00pm 23.4 24.7 20.2 82 2.1 SSE 13 17 7 9 1014.5 1014.4 0.0
11/05:30pm 23.6 24.1 20.1 81 2.3 SSE 17 20 9 11 1014.6 1014.5 0.0
11/05:00pm 24.2 25.6 20.3 79 2.5 SSE 13 17 7 9 1014.6 1014.5 0.0
11/04:30pm 24.7 24.8 20.0 75 3.0 SSE 19 24 10 13 1014.4 1014.3 0.0
11/04:00pm 25.3 25.4 20.3 74 3.3 SSE 20 24 11 13 1014.5 1014.4 0.0
11/03:30pm 25.6 25.8 20.6 74 3.3 SSE 20 24 11 13 1014.9 1014.8 0.0
11/03:00pm 25.7 26.0 20.7 74 3.3 SE 20 26 11 14 1015.0 1014.9 0.0
11/02:30pm 25.6 26.4 19.9 70 3.7 SSE 15 24 8 13 1015.3 1015.2 0.0
11/02:00pm 25.6 26.3 20.4 73 3.4 SE 17 24 9 13 1015.5 1015.4 0.0
11/01:30pm 25.7 26.8 20.5 73 3.4 ESE 15 20 8 11 1015.5 1015.4 0.0
11/01:00pm 25.7 26.8 20.5 73 3.4 ESE 15 17 8 9 1015.5 1015.4 0.0
11/12:30pm 25.0 26.2 19.8 73 3.4 ESE 13 17 7 9 1015.7 1015.6 0.0
11/12:00pm 25.1 26.8 20.1 74 3.2 E 11 17 6 9 1015.9 1015.8 0.0
11/11:30am 24.8 26.6 20.3 76 2.9 ESE 11 15 6 8 1016.0 1015.9 0.0
11/11:00am 25.0 26.5 19.8 73 3.4 ESE 11 17 6 9 1016.0 1015.9 0.0
11/10:30am 24.6 26.9 19.9 75 3.0 ESE 7 13 4 7 1015.9 1015.8 0.0
11/10:00am 24.0 25.9 19.7 77 2.8 SE 9 11 5 6 1015.8 1015.7 0.0
11/09:30am 24.1 25.9 19.6 76 2.9 ESE 9 11 5 6 1015.8 1015.7 0.0
11/09:00am 23.3 25.5 19.7 80 2.3 S 7 9 4 5 1015.7 1015.6 0.0
11/08:30am 22.6 25.2 20.1 86 1.6 SW 6 9 3 5 1015.6 1015.5 0.0

Latest Capital City Observations: Canberra | Sydney | Melbourne | Brisbane | Adelaide | Perth | Hobart | Darwin

Other Formats:

Comma delimited format used in spreadsheet applications
http://www.bom.gov.au/fwo/IDN60903/IDN60903.95937.axf

JavaScript Object Notation format (JSON) in row-major order
http://www.bom.gov.au/fwo/IDN60903/IDN60903.95937.json